BE848 / G-ECOC 7700 Squawk Report (18th of July, 2019)

Aircraft DH8D Reg No. G-ECOC Age N/A
Model DHC-8 Turboprop engines 2 First flight 02-08
Registered 02-12-09 Rollout 01-08 Delivered 21-03-08
Construction No. 4197 Line No. N/A Series Q-402
ADSHEX 405658 Airline name FlyBE Owner N/A
Airfield based Exeter~Devon~G First tracked 2017-07-13 15:56:00

Flight history for G-ECOC

Route Flight No Date Playback
Birmingham (BHX) - Bergerac-Roumanière (EGC) BE3983 2019-08-20 09:50:00
Belfast City (BHD) - Birmingham (BHX) BE403 2019-08-20 08:25:00
Birmingham (BHX) - Belfast City (BHD) BE400 2019-08-20 06:31:00
Glasgow (GLA) - Birmingham (BHX) BE795 2019-08-19 22:20:00
Birmingham (BHX) - Glasgow (GLA) BE792 2019-08-19 20:29:00
Glasgow (GLA) - Birmingham (BHX) BE791 2019-08-19 17:58:00
Birmingham (BHX) - Glasgow (GLA) BE788 2019-08-19 16:04:00
Nantes Atlantique (NTE) - Birmingham (BHX) BE3282 2019-08-19 14:26:00
Birmingham (BHX) - Nantes Atlantique (NTE) BE3281 2019-08-19 13:28:00
Newquay Cornwall (NQY) - Birmingham (BHX) BE1826 2019-08-19 08:50:00
Birmingham (BHX) - Newquay Cornwall (NQY) BE1823 2019-08-19 07:18:00
Hannover (HAJ) - Birmingham (BHX) BE438 2019-08-18 21:56:00
Birmingham (BHX) - Hannover (HAJ) BE437 2019-08-18 19:04:00
Belfast City (BHD) - Birmingham (BHX) BE411 2019-08-18 16:33:00
Birmingham (BHX) - Belfast City (BHD) BE408 2019-08-18 15:01:00
Bergerac-Roumanière (EGC) - Birmingham (BHX) BE3984 2019-08-18 13:00:00
Birmingham (BHX) - Bergerac-Roumanière (EGC) BE3983 2019-08-18 10:20:00
Dublin (DUB) - Cardiff (CWL) BE4522 2019-08-17 20:20:00
Birmingham (BHX) - Dusseldorf (DUS) BE7045 2019-08-17 19:38:00
???? N/A 2019-08-17 18:01:00
Time Lat Lon Altitude Heading Speed Vertical Rate
2019-07-18 15:29:45 GMT 55.459770 -3.101230 14,850 354 336 -1980
2019-07-18 15:29:28 GMT 55.415291 -3.093285 15,475 354 362 -1140
2019-07-18 15:29:17 GMT 55.415291 -3.093285 15,775 355 342 -1800
2019-07-18 15:29:07 GMT 55.399376 -3.090781 16,275 354 336 -1560
2019-07-18 15:28:55 GMT 55.380764 -3.087500 16,625 357 368 -2340
2019-07-18 15:28:44 GMT 55.362816 -3.085423 17,025 357 365 -1860
2019-07-18 15:28:32 GMT 55.343018 -3.084030 17,500 354 361 -1260
2019-07-18 15:28:22 GMT 55.326355 -3.081339 17,825 355 351 -2100
2019-07-18 15:28:10 GMT 55.306908 -3.078556 18,325 354 333 -1200
2019-07-18 15:28:00 GMT 55.291229 -3.076039 18,375 355 348 60
2019-07-18 15:27:49 GMT 55.272911 -3.073182 18,475 356 361 -780
2019-07-18 15:27:39 GMT 55.256268 -3.071083 18,600 357 363 -180
2019-07-18 15:27:28 GMT 55.238140 -3.069386 18,675 355 335 -540
2019-07-18 15:27:17 GMT 55.220539 -3.066952 18,775 357 360 -240
2019-07-18 15:27:07 GMT 55.202961 -3.065700 18,900 357 366 -360
2019-07-18 15:26:57 GMT 55.186028 -3.064470 19,000 357 349 -360
2019-07-18 15:26:44 GMT 55.164192 -3.062652 19,025 356 380 -420
2019-07-18 15:26:34 GMT 55.147396 -3.061308 19,100 356 333 -600
2019-07-18 15:26:24 GMT 55.131138 -3.059928 19,200 354 319 -180
2019-07-18 15:26:14 GMT 55.116390 -3.057671 19,275 352 352 -300
2019-07-18 15:26:04 GMT 55.099297 -3.053378 19,325 350 332 -420
2019-07-18 15:25:54 GMT 55.070507 -3.037462 19,400 336 329 -480
2019-07-18 15:25:44 GMT 55.055779 -3.026444 19,500 336 315 -480
2019-07-18 15:25:33 GMT 55.055779 -3.026444 19,575 338 339 -480
2019-07-18 15:25:23 GMT 55.041889 -3.016539 19,675 336 329 -600
2019-07-18 15:25:13 GMT 55.027721 -3.005923 19,750 337 317 -480
2019-07-18 15:25:03 GMT 55.014679 -2.996663 19,825 339 343 -300
2019-07-18 15:24:53 GMT 55.000267 -2.986462 19,925 336 330 -480
2019-07-18 15:24:40 GMT 54.966530 -2.961650 20,050 337 325 -420
2019-07-18 15:24:29 GMT 54.953003 -2.951913 20,125 341 379 -420
2019-07-18 15:24:19 GMT 54.953003 -2.951913 20,200 337 317 -300
2019-07-18 15:24:08 GMT 54.924126 -2.931353 20,300 337 331 -300
2019-07-18 15:23:58 GMT 54.924126 -2.931353 20,375 335 355 -480
2019-07-18 15:23:48 GMT 54.909416 -2.920263 20,450 337 327 -600
2019-07-18 15:23:38 GMT 54.895947 -2.910392 20,525 337 325 -600
2019-07-18 15:23:28 GMT 54.881493 -2.899255 20,625 339 319 -840
2019-07-18 15:23:16 GMT 54.865021 -2.888428 20,725 337 340 -1080
2019-07-18 15:23:06 GMT 54.836842 -2.868104 20,800 337 339 0
2019-07-18 15:22:56 GMT 54.836842 -2.868104 20,925 336 344 -600
2019-07-18 15:22:46 GMT 54.822212 -2.857856 20,975 338 329 -360
2019-07-18 15:22:36 GMT 54.808277 -2.847431 21,075 337 340 -480
2019-07-18 15:22:26 GMT 54.793758 -2.836816 21,150 341 314 -600
2019-07-18 15:22:16 GMT 54.779594 -2.826312 21,250 338 299 -1080
2019-07-18 15:22:06 GMT 54.765617 -2.816601 21,325 337 361 -480
2019-07-18 15:21:56 GMT 54.751186 -2.806411 21,425 336 313 -240
2019-07-18 15:21:46 GMT 54.737427 -2.796577 21,500 336 355 -540
2019-07-18 15:21:35 GMT 54.722343 -2.785486 21,575 339 330 -420
2019-07-18 15:21:24 GMT 54.705769 -2.774259 21,675 337 350 -420
2019-07-18 15:21:13 GMT 54.689434 -2.761787 21,775 337 337 -300
2019-07-18 15:21:02 GMT 54.673512 -2.750596 21,850 338 319 -300
2019-07-18 15:20:51 GMT 54.658028 -2.739724 21,925 337 313 0
2019-07-18 15:20:40 GMT 54.642796 -2.728664 22,000 342 304 0
2019-07-18 15:20:30 GMT 54.628132 -2.718577 22,000 337 302 0
2019-07-18 15:20:19 GMT 54.613003 -2.707477 22,000 338 325 0
2019-07-18 15:20:09 GMT 54.598106 -2.697119 22,000 337 300 0
2019-07-18 15:19:58 GMT 54.583191 -2.686682 22,000 340 351 0
2019-07-18 15:19:47 GMT 54.567535 -2.675480 22,000 337 332 0
2019-07-18 15:19:36 GMT 54.551163 -2.663336 22,000 340 293 0
2019-07-18 15:19:26 GMT 54.537380 -2.654119 22,000 338 309 0
2019-07-18 15:19:16 GMT 54.523331 -2.645213 22,000 335 321 0
2019-07-18 15:19:05 GMT 54.507942 -2.633526 22,000 336 330 0
2019-07-18 15:18:55 GMT 54.494312 -2.623753 22,000 338 344 0
2019-07-18 15:18:44 GMT 54.478115 -2.612352 22,000 337 334 0
2019-07-18 15:18:34 GMT 54.464581 -2.602920 22,000 337 329 0
2019-07-18 15:18:24 GMT 54.450119 -2.592384 22,000 338 332 0
2019-07-18 15:18:13 GMT 54.420990 -2.571842 22,000 343 390 0
2019-07-18 15:18:03 GMT 54.404823 -2.560357 22,000 329 286 0
2019-07-18 15:17:52 GMT 54.404823 -2.560357 22,000 339 312 0
2019-07-18 15:17:40 GMT 54.388580 -2.550033 22,000 335 364 0
2019-07-18 15:17:29 GMT 54.371376 -2.539307 22,000 338 337 0
2019-07-18 15:17:18 GMT 54.357620 -2.526659 22,000 339 328 0
2019-07-18 15:17:08 GMT 54.342487 -2.516498 22,000 338 337 0
2019-07-18 15:16:57 GMT 54.326477 -2.507797 22,000 338 332 0
2019-07-18 15:16:47 GMT 54.311516 -2.497622 22,000 333 318 0
2019-07-18 15:16:36 GMT 54.297005 -2.485278 22,000 336 338 0
2019-07-18 15:16:25 GMT 54.280670 -2.474453 22,000 338 321 0
2019-07-18 15:16:14 GMT 54.265491 -2.462481 22,000 330 318 0
2019-07-18 15:16:04 GMT 54.251099 -2.453089 22,000 338 342 0
2019-07-18 15:15:54 GMT 54.237347 -2.443368 22,000 337 309 0
2019-07-18 15:15:44 GMT 54.222157 -2.433590 22,000 336 329 0
2019-07-18 15:15:33 GMT 54.208412 -2.422920 22,000 338 376 0
2019-07-18 15:15:23 GMT 54.193375 -2.412640 22,000 337 354 0
2019-07-18 15:15:12 GMT 54.177914 -2.401861 22,000 338 322 0
2019-07-18 15:15:01 GMT 54.161034 -2.390214 22,000 338 299 0
2019-07-18 15:14:51 GMT 54.146648 -2.379869 22,000 338 313 0
2019-07-18 15:14:41 GMT 54.133160 -2.370671 22,000 343 327 0
2019-07-18 15:14:31 GMT 54.119347 -2.362048 22,000 334 349 0
2019-07-18 15:14:19 GMT 54.101082 -2.348608 22,000 336 303 0
2019-07-18 15:14:09 GMT 54.088047 -2.339570 22,000 337 344 0
2019-07-18 15:13:57 GMT 54.070538 -2.326500 22,000 340 297 0
2019-07-18 15:13:46 GMT 54.056271 -2.317979 22,000 338 347 0
2019-07-18 15:13:35 GMT 54.039486 -2.306067 22,000 336 373 0
2019-07-18 15:13:24 GMT 54.024220 -2.295416 22,000 338 357 0
2019-07-18 15:13:13 GMT 54.007164 -2.284702 22,000 336 335 0
2019-07-18 15:13:02 GMT 53.991337 -2.273518 22,000 341 311 0
2019-07-18 15:12:50 GMT 53.974377 -2.261610 22,000 338 312 0
2019-07-18 15:12:40 GMT 53.960705 -2.252772 22,000 338 316 0
2019-07-18 15:12:30 GMT 53.944324 -2.243590 22,000 332 280 0
2019-07-18 15:12:19 GMT 53.930386 -2.233637 22,000 335 312 0
2019-07-18 15:12:08 GMT 53.914070 -2.220058 22,000 342 344 0
2019-07-18 15:11:57 GMT 53.898872 -2.210141 22,000 341 311 0
2019-07-18 15:11:45 GMT 53.881359 -2.198486 22,000 333 330 0
2019-07-18 15:11:34 GMT 53.864132 -2.187250 22,000 331 220 0
2019-07-18 15:11:24 GMT 53.855213 -2.178902 22,000 339 425 0
2019-07-18 15:11:14 GMT 53.835732 -2.167149 22,000 334 283 0
2019-07-18 15:11:04 GMT 53.823875 -2.157601 22,000 337 340 0
2019-07-18 15:10:33 GMT 53.762375 -2.116674 22,000 346 362 0
2019-07-18 15:10:23 GMT 53.762375 -2.116674 22,000 338 332 0
2019-07-18 15:10:12 GMT 53.730766 -2.098947 22,000 344 322 0
2019-07-18 15:10:01 GMT 53.730766 -2.098947 22,000 349 306 0
2019-07-18 15:09:50 GMT 53.713840 -2.090789 22,000 347 354 0
2019-07-18 15:09:39 GMT 53.695751 -2.085313 22,000 342 337 0
2019-07-18 15:09:29 GMT 53.679802 -2.078567 22,000 347 317 0
2019-07-18 15:09:19 GMT 53.664539 -2.072387 22,000 342 306 0
2019-07-18 15:09:08 GMT 53.649143 -2.064838 22,000 347 304 0
2019-07-18 15:08:58 GMT 53.616749 -2.052644 22,000 350 375 0
2019-07-18 15:08:48 GMT 53.616749 -2.052644 22,000 343 361 0
2019-07-18 15:08:36 GMT 53.597443 -2.044320 22,000 349 347 0
2019-07-18 15:08:26 GMT 53.582302 -2.038307 22,000 345 330 0
2019-07-18 15:08:16 GMT 53.567486 -2.031815 22,000 347 304 0
2019-07-18 15:08:06 GMT 53.552666 -2.024149 22,000 347 366 0
2019-07-18 15:07:55 GMT 53.521599 -2.013004 22,000 344 329 0
2019-07-18 15:07:45 GMT 53.521599 -2.013004 22,000 346 359 0
2019-07-18 15:07:34 GMT 53.491318 -2.001346 22,000 345 303 0
2019-07-18 15:07:24 GMT 53.491318 -2.001346 22,000 349 345 0
2019-07-18 15:07:13 GMT 53.473907 -1.994454 22,000 345 311 0
2019-07-18 15:07:02 GMT 53.458572 -1.988031 22,000 345 301 60
2019-07-18 15:06:50 GMT 53.428894 -1.975617 22,000 346 303 240
2019-07-18 15:06:40 GMT 53.428894 -1.975617 21,975 346 310 1020
2019-07-18 15:06:30 GMT 53.414936 -1.969777 21,700 343 269 960
2019-07-18 15:06:20 GMT 53.402958 -1.963929 21,875 345 296 1140
2019-07-18 15:06:09 GMT 53.374241 -1.951813 21,650 341 343 1200
2019-07-18 15:05:59 GMT 53.374241 -1.951813 21,500 344 281 1140
2019-07-18 15:05:48 GMT 53.346039 -1.940518 20,375 345 274 1800
2019-07-18 15:05:37 GMT 53.346039 -1.940518 21,025 348 309 2340
2019-07-18 15:05:27 GMT 53.317570 -1.929443 20,775 343 266 1380
2019-07-18 15:05:17 GMT 53.302998 -1.923535 20,525 347 306 1980
2019-07-18 15:05:06 GMT 53.302998 -1.923535 20,300 345 281 960
2019-07-18 15:04:56 GMT 53.273106 -1.911484 20,050 346 337 1020
2019-07-18 15:04:44 GMT 53.273106 -1.911484 19,850 348 305 900
2019-07-18 15:04:33 GMT 53.243683 -1.900464 19,625 346 285 780
2019-07-18 15:04:22 GMT 53.243683 -1.900464 19,500 342 265 0
2019-07-18 15:04:12 GMT 53.230618 -1.894730 19,325 346 342 2340
2019-07-18 15:04:02 GMT 53.215786 -1.889102 19,100 342 293 1200
2019-07-18 15:03:52 GMT 53.202404 -1.884241 18,875 343 309 720
2019-07-18 15:03:42 GMT 53.189480 -1.878576 18,750 344 297 1320
2019-07-18 15:03:32 GMT 53.175785 -1.872792 18,550 345 309 1500
2019-07-18 15:03:22 GMT 53.161671 -1.866371 18,275 347 280 540
2019-07-18 15:03:12 GMT 53.149204 -1.861747 18,175 348 313 720
2019-07-18 15:03:00 GMT 53.131924 -1.854979 17,925 343 275 1200
2019-07-18 15:02:50 GMT 53.103966 -1.844421 17,725 345 298 780
2019-07-18 15:02:39 GMT 53.103966 -1.844421 17,550 344 281 780
2019-07-18 15:02:28 GMT 53.088512 -1.841011 17,325 333 287 1200
2019-07-18 15:02:18 GMT 53.076008 -1.832534 17,125 346 273 2340
2019-07-18 15:02:08 GMT 53.048225 -1.821912 16,950 345 306 -60
2019-07-18 15:01:57 GMT 53.048225 -1.821912 16,725 345 256 1260
2019-07-18 15:01:46 GMT 53.022171 -1.810614 16,475 347 284 1080
2019-07-18 15:01:36 GMT 53.022171 -1.810614 16,150 345 269 1020
2019-07-18 15:01:24 GMT 53.006351 -1.803970 15,975 347 267 2220
2019-07-18 15:01:14 GMT 52.994289 -1.799380 15,800 345 289 2460
2019-07-18 15:01:04 GMT 52.980278 -1.793795 15,475 344 272 240
2019-07-18 15:00:54 GMT 52.967800 -1.788650 15,225 345 285 1500
2019-07-18 15:00:43 GMT 52.953712 -1.782773 15,000 346 275 9360
2019-07-18 15:00:33 GMT 52.941536 -1.777926 14,825 346 290 2280
2019-07-18 15:00:22 GMT 52.926071 -1.771953 14,450 346 256 1260
2019-07-18 15:00:11 GMT 52.914410 -1.766726 14,175 346 318 3060
2019-07-18 15:00:01 GMT 52.900593 -1.760949 13,875 346 256 1680
2019-07-18 14:59:51 GMT 52.888241 -1.756116 13,650 345 281 1140
2019-07-18 14:59:40 GMT 52.874226 -1.750156 13,300 343 266 1380
2019-07-18 14:59:30 GMT 52.862396 -1.744465 13,075 347 288 1020
2019-07-18 14:59:20 GMT 52.849380 -1.739591 12,850 347 272 1200
2019-07-18 14:59:10 GMT 52.836693 -1.735121 12,625 349 274 1560
2019-07-18 14:58:58 GMT 52.822327 -1.731387 12,325 356 294 1200
2019-07-18 14:58:47 GMT 52.807381 -1.729857 11,975 5 279 1260
2019-07-18 14:58:36 GMT 52.793552 -1.731634 11,650 7 279 1200
2019-07-18 14:58:26 GMT 52.780758 -1.734506 11,375 5 271 1980
2019-07-18 14:58:14 GMT 52.765778 -1.736950 11,125 6 283 2760
2019-07-18 14:58:03 GMT 52.739559 -1.742640 10,825 6 250 0
2019-07-18 14:57:53 GMT 52.739559 -1.742640 10,475 5 244 1920
2019-07-18 14:57:43 GMT 52.728325 -1.744525 10,125 6 256 1320
2019-07-18 14:57:32 GMT 52.715336 -1.747051 9,775 6 264 1680
2019-07-18 14:57:20 GMT 52.701061 -1.749993 9,350 3 235 1680
2019-07-18 14:57:09 GMT 52.689091 -1.751106 8,875 8 278 1980
2019-07-18 14:56:59 GMT 52.676334 -1.754377 8,550 6 254 3180
2019-07-18 14:56:49 GMT 52.664627 -1.756453 8,150 4 257 1260
2019-07-18 14:56:38 GMT 52.651417 -1.758839 7,900 11 271 1140
2019-07-18 14:56:27 GMT 52.639626 -1.761003 7,675 344 305 1920
2019-07-18 14:56:17 GMT 52.627892 -1.764194 7,400 338 261 1860
2019-07-18 14:56:07 GMT 52.617035 -1.766270 7,100 10 265 1920
2019-07-18 14:55:56 GMT 52.604660 -1.769277 6,625 5 256 1920
2019-07-18 14:55:46 GMT 52.593609 -1.771647 6,325 7 246 1380
2019-07-18 14:55:35 GMT 52.581615 -1.774383 5,950 7 261 3180
2019-07-18 14:55:25 GMT 52.570755 -1.776609 5,525 11 288

Making use of Plane Finder data

You are free to use the raw flight data, aircraft information and images provided in this report for your own purposes provided the data is correctly attributed to Plane Finder. We ask that you please credit Plane Finder and link to planefinder.net in close proximity to the content.

Optionally one of the following logos (no smaller then 150x24px) can be used and must link to planefinder.net

Embedding the Plane Finder map

You are welcome to embed the Plane Finder playback map on your website to offer visitors a more interactive experience. We suggest using the following HTML code:

<iframe src="//planefinder.net/data/report/BE848-G-ECOC-7700-squawk-2019-07-18/map" width="800" height="600" seamless="seamless"></iframe>

Where our data comes from

Plane Finder has a global network of data feeds and antenna radars that receive data broadcast directly from aircraft. The primary technologies used are ADS-B and MLAT. We also show feeds from the FAA and a FLARM glider feed.

Click here to find out more about the Plane Finder network.

How we collect our data